createdAt,value
2022-12-18T00:00:01.140Z,23.10
2022-12-18T00:00:22.189Z,23.50
2022-12-18T00:00:43.285Z,23.60
2022-12-18T00:01:04.339Z,23.00
2022-12-18T00:01:25.431Z,23.40
2022-12-18T00:01:46.553Z,22.60
2022-12-18T00:02:07.647Z,23.50
2022-12-18T00:02:28.777Z,23.40
2022-12-18T00:02:49.975Z,23.00
2022-12-18T00:03:11.204Z,23.20
2022-12-18T00:03:32.396Z,23.60
2022-12-18T00:03:53.760Z,23.60
2022-12-18T00:04:15.056Z,23.10
2022-12-18T00:04:36.143Z,22.10
2022-12-18T00:04:57.396Z,24.40
2022-12-18T00:05:18.439Z,24.30
2022-12-18T00:05:39.509Z,22.80
2022-12-18T00:06:00.688Z,22.40
2022-12-18T00:06:21.705Z,22.70
2022-12-18T00:06:42.755Z,23.10
2022-12-18T00:07:05.593Z,23.70
2022-12-18T00:07:26.748Z,22.70
2022-12-18T00:07:47.789Z,22.70
2022-12-18T00:08:09.266Z,23.20
2022-12-18T00:08:30.618Z,23.00
2022-12-18T00:08:51.689Z,22.80
2022-12-18T00:09:12.753Z,23.60
2022-12-18T00:09:39.965Z,23.50
2022-12-18T00:10:00.796Z,23.30
2022-12-18T00:10:21.855Z,23.80
2022-12-18T00:10:42.950Z,24.10
2022-12-18T00:11:04.016Z,22.90
2022-12-18T00:11:28.135Z,23.40
2022-12-18T00:11:49.194Z,22.90
2022-12-18T00:12:37.225Z,23.80
2022-12-18T00:12:58.297Z,22.90
2022-12-18T00:13:19.429Z,22.30
2022-12-18T00:13:41.070Z,23.10
2022-12-18T00:14:02.302Z,21.90
2022-12-18T00:14:23.363Z,21.70
2022-12-18T00:14:44.433Z,22.10
2022-12-18T00:15:05.514Z,22.00
2022-12-18T00:15:26.583Z,21.70
2022-12-18T00:15:47.701Z,23.00
2022-12-18T00:16:08.794Z,23.00
2022-12-18T00:16:29.930Z,23.00
2022-12-18T00:16:51.044Z,22.00
2022-12-18T00:17:12.103Z,21.70
2022-12-18T00:17:33.152Z,21.40
2022-12-18T00:17:54.215Z,21.80
2022-12-18T00:18:18.957Z,22.60
2022-12-18T00:18:42.510Z,22.30
2022-12-18T00:19:03.618Z,22.30
2022-12-18T00:19:24.678Z,22.50
2022-12-18T00:19:45.737Z,21.30
2022-12-18T00:20:06.818Z,21.70
2022-12-18T00:20:27.870Z,21.90
2022-12-18T00:20:48.935Z,22.20
2022-12-18T00:21:10.032Z,21.40
2022-12-18T00:21:31.067Z,22.10
2022-12-18T00:21:52.115Z,21.90
2022-12-18T00:22:13.216Z,22.50
2022-12-18T00:22:34.267Z,23.40
2022-12-18T00:22:55.326Z,22.10
2022-12-18T00:23:16.415Z,21.50
2022-12-18T00:23:37.996Z,21.30
2022-12-18T00:23:59.255Z,21.40
2022-12-18T00:24:20.353Z,22.60
2022-12-18T00:24:41.794Z,26.10
2022-12-18T00:25:02.869Z,24.10
2022-12-18T00:25:23.954Z,21.90
2022-12-18T00:25:45.344Z,21.80
2022-12-18T00:26:06.401Z,21.60
2022-12-18T00:26:27.465Z,21.00
2022-12-18T00:26:48.584Z,21.70
2022-12-18T00:27:09.649Z,21.90
2022-12-18T00:27:30.708Z,22.10
2022-12-18T00:27:51.774Z,21.50
2022-12-18T00:28:12.829Z,21.00
2022-12-18T00:28:33.943Z,22.20
2022-12-18T00:28:54.991Z,23.10
2022-12-18T00:29:16.044Z,23.20
2022-12-18T00:29:37.098Z,23.20
2022-12-18T00:29:58.176Z,21.90
2022-12-18T00:30:19.235Z,22.10
2022-12-18T00:30:40.335Z,22.30
2022-12-18T00:31:01.474Z,22.10
2022-12-18T00:31:22.623Z,22.30
2022-12-18T00:31:43.755Z,21.20
2022-12-18T00:32:04.932Z,22.90
2022-12-18T00:32:26.125Z,23.80
2022-12-18T00:32:47.148Z,23.10
2022-12-18T00:33:08.219Z,23.40
2022-12-18T00:33:29.279Z,23.40
2022-12-18T00:33:51.216Z,24.00
2022-12-18T00:34:16.158Z,23.30
2022-12-18T00:34:37.223Z,23.10
2022-12-18T00:34:58.279Z,22.90
2022-12-18T00:35:19.336Z,23.10
2022-12-18T00:35:40.512Z,23.10
2022-12-18T00:36:01.585Z,24.10
2022-12-18T00:36:22.649Z,23.60
2022-12-18T00:36:43.712Z,23.40
2022-12-18T00:37:04.765Z,22.90
2022-12-18T00:37:25.826Z,22.90
2022-12-18T00:37:46.910Z,23.70
2022-12-18T00:38:07.985Z,24.00
2022-12-18T00:38:29.070Z,24.30
2022-12-18T00:38:50.135Z,24.90
2022-12-18T00:39:11.243Z,23.70
2022-12-18T00:39:32.276Z,24.50
2022-12-18T00:39:53.339Z,24.70
2022-12-18T00:40:14.403Z,25.10
2022-12-18T00:40:35.577Z,25.60
2022-12-18T00:40:56.603Z,24.20
2022-12-18T00:41:17.856Z,24.80
2022-12-18T00:41:38.924Z,24.60
2022-12-18T00:41:59.981Z,24.70
2022-12-18T00:42:21.033Z,24.80
2022-12-18T00:42:42.093Z,25.00
2022-12-18T00:43:03.170Z,24.20
2022-12-18T00:43:24.230Z,24.60
2022-12-18T00:43:45.528Z,24.50
2022-12-18T00:44:06.564Z,24.90
2022-12-18T00:44:27.663Z,26.00
2022-12-18T00:44:48.705Z,24.20
2022-12-18T00:45:12.882Z,24.10
2022-12-18T00:45:34.352Z,24.70
2022-12-18T00:45:55.549Z,25.10
2022-12-18T00:46:16.724Z,25.20
2022-12-18T00:46:37.933Z,25.30
2022-12-18T00:46:59.017Z,24.90
2022-12-18T00:47:20.056Z,26.00
2022-12-18T00:47:41.115Z,26.40
2022-12-18T00:48:02.187Z,25.40
2022-12-18T00:48:23.283Z,24.80
2022-12-18T00:48:44.331Z,25.40
2022-12-18T00:49:06.211Z,25.30
2022-12-18T00:49:27.292Z,25.70
2022-12-18T00:49:48.328Z,24.70
2022-12-18T00:50:09.383Z,25.10
2022-12-18T00:50:30.505Z,25.60
2022-12-18T00:50:51.547Z,26.40
2022-12-18T00:51:12.620Z,25.40
2022-12-18T00:51:33.666Z,25.40
2022-12-18T00:51:54.888Z,25.40
2022-12-18T00:52:15.938Z,25.10
2022-12-18T00:52:37.022Z,24.80
2022-12-18T00:52:58.083Z,25.20
2022-12-18T00:53:19.158Z,25.80
2022-12-18T00:53:40.782Z,26.60
2022-12-18T00:54:02.017Z,26.70
2022-12-18T00:54:23.090Z,26.20
2022-12-18T00:54:44.129Z,25.70
2022-12-18T00:55:06.647Z,26.00
2022-12-18T00:55:27.825Z,25.80
2022-12-18T00:55:48.898Z,24.10
2022-12-18T00:56:09.960Z,24.70
2022-12-18T00:56:31.016Z,25.50
2022-12-18T00:56:52.080Z,25.80
2022-12-18T00:57:13.317Z,25.80
2022-12-18T00:57:34.369Z,26.30
2022-12-18T00:57:55.438Z,25.50
2022-12-18T00:58:16.498Z,25.20
2022-12-18T00:58:37.579Z,25.30
2022-12-18T00:58:58.633Z,25.70
2022-12-18T00:59:19.711Z,25.10
2022-12-18T00:59:40.763Z,25.30
2022-12-18T01:00:01.850Z,25.00
2022-12-18T01:00:22.969Z,24.70
2022-12-18T01:00:44.102Z,25.00
2022-12-18T01:01:05.211Z,25.20
2022-12-18T01:01:26.449Z,25.00
2022-12-18T01:01:48.002Z,24.60
2022-12-18T01:02:09.349Z,24.30
2022-12-18T01:02:30.668Z,23.90
2022-12-18T01:02:51.857Z,24.50
2022-12-18T01:03:12.997Z,25.00
2022-12-18T01:03:34.044Z,26.00
2022-12-18T01:03:55.122Z,24.60
2022-12-18T01:04:16.175Z,25.80
2022-12-18T01:04:37.244Z,25.20
2022-12-18T01:04:58.309Z,24.80
2022-12-18T01:05:19.350Z,24.70
2022-12-18T01:05:40.410Z,25.10
2022-12-18T01:06:01.480Z,26.50
2022-12-18T01:06:22.531Z,24.90
2022-12-18T01:06:43.587Z,25.40
2022-12-18T01:07:05.719Z,25.60
2022-12-18T01:07:26.788Z,25.20
2022-12-18T01:07:47.876Z,26.00
2022-12-18T01:08:08.931Z,26.60
2022-12-18T01:08:30.084Z,25.10
2022-12-18T01:08:51.116Z,26.10
2022-12-18T01:09:12.180Z,25.30
2022-12-18T01:09:33.247Z,25.00
2022-12-18T01:09:54.307Z,25.40
2022-12-18T01:10:15.409Z,26.00
2022-12-18T01:10:36.453Z,26.50
2022-12-18T01:10:57.511Z,25.10
2022-12-18T01:11:18.587Z,23.80
2022-12-18T01:11:39.639Z,25.80
2022-12-18T01:12:00.695Z,25.50
2022-12-18T01:12:21.780Z,23.40
2022-12-18T01:12:42.826Z,24.50
2022-12-18T01:13:04.058Z,23.20
2022-12-18T01:13:25.120Z,23.90
2022-12-18T01:13:46.184Z,23.30
2022-12-18T01:14:07.242Z,24.90
2022-12-18T01:14:28.294Z,24.60
2022-12-18T01:14:49.373Z,24.50
2022-12-18T01:15:10.463Z,24.50
2022-12-18T01:15:31.594Z,24.90
2022-12-18T01:15:52.657Z,22.40
2022-12-18T01:16:13.729Z,23.80
2022-12-18T01:16:34.931Z,24.20
2022-12-18T01:16:55.972Z,24.20
2022-12-18T01:17:17.081Z,24.60
2022-12-18T01:17:38.137Z,24.10
2022-12-18T01:17:59.190Z,24.40
2022-12-18T01:18:20.413Z,23.90
2022-12-18T01:18:41.470Z,24.30
2022-12-18T01:19:02.538Z,24.40
2022-12-18T01:19:23.594Z,25.00
2022-12-18T01:19:44.662Z,25.30
2022-12-18T01:20:05.717Z,24.70
2022-12-18T01:20:26.805Z,24.20
2022-12-18T01:20:47.862Z,23.90
2022-12-18T01:21:08.927Z,23.80
2022-12-18T01:21:29.995Z,24.00
2022-12-18T01:21:51.131Z,24.20
2022-12-18T01:22:12.183Z,23.90
2022-12-18T01:22:33.372Z,23.70
2022-12-18T01:22:54.403Z,23.90
2022-12-18T01:23:15.475Z,23.70
2022-12-18T01:23:37.016Z,24.60
2022-12-18T01:23:58.295Z,23.80
2022-12-18T01:24:19.390Z,24.00
2022-12-18T01:24:40.488Z,23.60
2022-12-18T01:25:01.538Z,22.80
2022-12-18T01:25:22.575Z,23.70
2022-12-18T01:25:43.640Z,23.50
2022-12-18T01:26:04.707Z,22.80
2022-12-18T01:26:25.785Z,23.80
2022-12-18T01:26:46.852Z,24.40
2022-12-18T01:27:07.906Z,24.40
2022-12-18T01:27:28.978Z,24.00
2022-12-18T01:27:50.031Z,24.60
2022-12-18T01:28:11.089Z,24.60
2022-12-18T01:28:32.165Z,24.00
2022-12-18T01:28:53.271Z,23.70
2022-12-18T01:29:14.330Z,23.60
2022-12-18T01:29:35.403Z,23.20
2022-12-18T01:29:56.473Z,23.80
2022-12-18T01:30:17.521Z,24.80
2022-12-18T01:30:38.579Z,24.80
2022-12-18T01:30:59.636Z,24.20
2022-12-18T01:31:20.778Z,23.80
2022-12-18T01:31:42.014Z,24.30
2022-12-18T01:32:03.114Z,24.10
2022-12-18T01:32:24.224Z,23.80
2022-12-18T01:32:45.294Z,24.40
2022-12-18T01:33:06.361Z,25.20
2022-12-18T01:33:27.421Z,25.50
2022-12-18T01:33:48.493Z,24.60
2022-12-18T01:34:09.704Z,25.50
2022-12-18T01:34:30.776Z,24.60
2022-12-18T01:34:51.939Z,23.90
2022-12-18T01:35:12.999Z,24.30
2022-12-18T01:35:34.035Z,25.10
2022-12-18T01:35:55.161Z,24.80
2022-12-18T01:36:16.214Z,23.40
2022-12-18T01:36:37.285Z,23.70
2022-12-18T01:36:58.374Z,24.00
2022-12-18T01:37:19.496Z,23.70
2022-12-18T01:37:40.556Z,24.50
2022-12-18T01:38:01.620Z,24.30
2022-12-18T01:38:22.677Z,23.90
2022-12-18T01:38:43.742Z,25.00
2022-12-18T01:39:04.810Z,25.50
2022-12-18T01:39:26.043Z,25.40
2022-12-18T01:39:47.102Z,24.30
2022-12-18T01:40:08.160Z,24.40
2022-12-18T01:40:29.244Z,26.00
2022-12-18T01:40:50.297Z,25.80
2022-12-18T01:41:11.377Z,24.50
2022-12-18T01:41:32.438Z,23.80
2022-12-18T01:41:53.519Z,24.10
2022-12-18T01:42:14.550Z,25.10
2022-12-18T01:42:35.638Z,24.60
2022-12-18T01:42:56.705Z,25.60
2022-12-18T01:43:17.775Z,24.10
2022-12-18T01:43:39.337Z,24.00
2022-12-18T01:44:00.593Z,24.60
2022-12-18T01:44:21.650Z,25.00
2022-12-18T01:44:42.890Z,24.50
2022-12-18T01:45:03.984Z,24.20
2022-12-18T01:45:25.081Z,24.50
2022-12-18T01:45:46.192Z,24.50
2022-12-18T01:46:07.335Z,24.90
2022-12-18T01:46:28.392Z,23.70
2022-12-18T01:46:49.440Z,24.50
2022-12-18T01:47:10.511Z,24.00
2022-12-18T01:47:31.585Z,23.90
2022-12-18T01:47:52.679Z,24.90
2022-12-18T01:48:13.721Z,25.90
2022-12-18T01:48:34.801Z,24.60
2022-12-18T01:48:55.857Z,24.70
2022-12-18T01:49:16.935Z,23.90
2022-12-18T01:49:37.998Z,23.40
2022-12-18T01:49:59.235Z,25.10
2022-12-18T01:50:20.322Z,23.90
2022-12-18T01:50:41.370Z,23.40
2022-12-18T01:51:02.430Z,23.60
2022-12-18T01:51:23.512Z,23.40
2022-12-18T01:51:44.561Z,23.70
2022-12-18T01:52:05.616Z,23.00
2022-12-18T01:52:26.703Z,23.40
2022-12-18T01:52:47.760Z,23.60
2022-12-18T01:53:08.814Z,22.90
2022-12-18T01:53:29.887Z,25.00
2022-12-18T01:53:50.944Z,23.90
2022-12-18T01:54:12.076Z,23.00
2022-12-18T01:54:33.108Z,22.80
2022-12-18T01:54:54.167Z,22.80
2022-12-18T01:55:15.421Z,22.30
2022-12-18T01:55:36.488Z,22.00
2022-12-18T01:55:57.651Z,22.40
2022-12-18T01:56:18.666Z,22.80
2022-12-18T01:56:39.732Z,23.20
2022-12-18T01:57:00.798Z,23.10
2022-12-18T01:57:21.885Z,23.00
2022-12-18T01:57:42.938Z,22.70
2022-12-18T01:58:04.012Z,21.50
2022-12-18T01:58:25.075Z,21.90
2022-12-18T01:58:46.129Z,22.60
2022-12-18T01:59:07.239Z,22.80
2022-12-18T01:59:28.300Z,22.50
2022-12-18T01:59:49.374Z,22.80
2022-12-18T02:00:10.487Z,22.50
2022-12-18T02:00:31.538Z,22.40
2022-12-18T02:00:52.694Z,23.00
2022-12-18T02:01:13.926Z,22.40
2022-12-18T02:01:35.205Z,22.40
2022-12-18T02:01:56.699Z,22.60
2022-12-18T02:02:18.005Z,22.90
2022-12-18T02:02:39.235Z,21.40
2022-12-18T02:03:00.487Z,22.10
2022-12-18T02:03:21.729Z,21.90
2022-12-18T02:03:42.818Z,22.10
2022-12-18T02:04:03.879Z,22.10
2022-12-18T02:04:24.937Z,22.80
2022-12-18T02:04:49.380Z,21.70
2022-12-18T02:05:10.768Z,22.10
2022-12-18T02:05:31.861Z,22.40
2022-12-18T02:05:52.908Z,22.80
2022-12-18T02:06:13.977Z,22.10
2022-12-18T02:06:35.029Z,21.60
2022-12-18T02:06:56.183Z,21.30
2022-12-18T02:07:17.217Z,22.00
2022-12-18T02:07:38.275Z,21.20
2022-12-18T02:07:59.342Z,20.90
2022-12-18T02:08:20.398Z,21.30
2022-12-18T02:08:41.501Z,21.40
2022-12-18T02:09:02.556Z,21.80
2022-12-18T02:09:23.626Z,22.00
2022-12-18T02:09:44.682Z,22.60
2022-12-18T02:10:05.784Z,22.80
2022-12-18T02:10:26.839Z,22.40
2022-12-18T02:10:47.931Z,22.80
2022-12-18T02:11:09.014Z,22.30
2022-12-18T02:11:30.063Z,22.00
2022-12-18T02:11:51.133Z,22.40
2022-12-18T02:12:12.187Z,21.20
2022-12-18T02:12:33.362Z,21.70
2022-12-18T02:12:54.388Z,21.50
2022-12-18T02:13:15.442Z,21.30
2022-12-18T02:13:36.939Z,22.20
2022-12-18T02:13:58.213Z,24.00
2022-12-18T02:14:19.281Z,23.50
2022-12-18T02:14:40.358Z,22.80
2022-12-18T02:15:01.417Z,22.80
2022-12-18T02:15:22.536Z,24.40
2022-12-18T02:15:43.644Z,24.70
2022-12-18T02:16:04.802Z,25.20
2022-12-18T02:16:25.901Z,25.80
2022-12-18T02:16:47.001Z,26.00
2022-12-18T02:17:08.065Z,25.80
2022-12-18T02:17:29.119Z,24.10
2022-12-18T02:17:50.181Z,23.90
2022-12-18T02:18:11.240Z,24.80
2022-12-18T02:18:32.395Z,23.90
2022-12-18T02:18:53.428Z,23.80
2022-12-18T02:19:14.488Z,24.40
2022-12-18T02:19:35.543Z,22.80
2022-12-18T02:19:56.638Z,21.60
2022-12-18T02:20:17.714Z,22.40
2022-12-18T02:20:38.777Z,22.50
2022-12-18T02:20:59.841Z,21.50
2022-12-18T02:21:21.065Z,22.70
2022-12-18T02:21:42.163Z,24.00
2022-12-18T02:22:03.199Z,22.90
2022-12-18T02:22:24.253Z,22.40
2022-12-18T02:22:46.106Z,22.30
2022-12-18T02:23:07.187Z,22.30
2022-12-18T02:23:28.257Z,22.10
2022-12-18T02:23:49.309Z,21.80
2022-12-18T02:24:10.375Z,21.70
2022-12-18T02:24:31.486Z,22.00
2022-12-18T02:24:52.505Z,21.10
2022-12-18T02:25:13.551Z,22.10
2022-12-18T02:25:34.625Z,22.70
2022-12-18T02:25:55.685Z,22.70
2022-12-18T02:26:16.930Z,22.20
2022-12-18T02:26:38.010Z,22.50
2022-12-18T02:26:59.057Z,23.10
2022-12-18T02:27:20.120Z,24.10
2022-12-18T02:27:41.305Z,23.00
2022-12-18T02:28:02.313Z,23.00
2022-12-18T02:28:23.373Z,23.90
2022-12-18T02:28:44.497Z,24.40
2022-12-18T02:29:05.558Z,22.60
2022-12-18T02:29:26.616Z,22.30
2022-12-18T02:29:51.662Z,22.80
2022-12-18T02:30:14.670Z,22.10
2022-12-18T02:30:35.748Z,22.60
2022-12-18T02:30:56.848Z,22.00
2022-12-18T02:31:18.117Z,22.00
2022-12-18T02:31:39.219Z,22.70
2022-12-18T02:32:00.264Z,23.80
2022-12-18T02:32:21.304Z,22.60
2022-12-18T02:32:42.376Z,23.70
2022-12-18T02:33:03.463Z,23.10
2022-12-18T02:33:24.508Z,22.30
2022-12-18T02:33:45.551Z,23.40
2022-12-18T02:34:06.623Z,22.60
2022-12-18T02:34:27.825Z,23.40
2022-12-18T02:34:48.838Z,22.50
2022-12-18T02:35:09.915Z,21.90
2022-12-18T02:35:30.970Z,22.10
2022-12-18T02:35:52.124Z,22.60
2022-12-18T02:36:13.142Z,21.80
2022-12-18T02:36:34.354Z,21.50
2022-12-18T02:36:55.374Z,21.60
2022-12-18T02:37:16.440Z,22.40
2022-12-18T02:37:37.506Z,23.10
2022-12-18T02:37:58.573Z,22.90
2022-12-18T02:38:19.687Z,22.60
2022-12-18T02:38:40.699Z,22.30
2022-12-18T02:39:01.792Z,22.40
2022-12-18T02:39:22.833Z,21.60
2022-12-18T02:39:43.901Z,22.00
2022-12-18T02:40:04.983Z,22.40
2022-12-18T02:40:26.027Z,21.10
2022-12-18T02:40:47.082Z,21.50
2022-12-18T02:41:08.203Z,22.30
2022-12-18T02:41:29.267Z,22.40
2022-12-18T02:41:50.362Z,21.20
2022-12-18T02:42:11.400Z,21.00
2022-12-18T02:42:32.454Z,20.50
2022-12-18T02:42:53.628Z,21.20
2022-12-18T02:43:14.629Z,20.80
2022-12-18T02:43:35.925Z,20.60
2022-12-18T02:43:57.142Z,20.20
2022-12-18T02:44:18.518Z,20.70
2022-12-18T02:44:39.577Z,21.10
2022-12-18T02:45:00.750Z,20.70
2022-12-18T02:45:21.807Z,21.80
2022-12-18T02:45:42.990Z,21.70
2022-12-18T02:46:04.081Z,21.60
2022-12-18T02:46:25.169Z,21.60
2022-12-18T02:46:46.230Z,22.00
2022-12-18T02:47:07.279Z,22.10
2022-12-18T02:47:28.331Z,21.80
2022-12-18T02:47:49.430Z,20.70
2022-12-18T02:48:10.479Z,22.10
2022-12-18T02:48:31.556Z,21.40
2022-12-18T02:48:52.660Z,21.60
2022-12-18T02:49:13.703Z,21.60
2022-12-18T02:49:34.768Z,21.10
2022-12-18T02:49:55.837Z,20.70
2022-12-18T02:50:16.912Z,21.70
2022-12-18T02:50:37.972Z,20.30
2022-12-18T02:50:59.119Z,21.50
2022-12-18T02:51:20.149Z,22.40
2022-12-18T02:51:41.201Z,20.90
2022-12-18T02:52:02.505Z,20.80
2022-12-18T02:52:23.533Z,20.90
2022-12-18T02:52:44.592Z,20.90
2022-12-18T02:53:05.641Z,21.90
2022-12-18T02:53:26.716Z,21.60
2022-12-18T02:53:47.757Z,21.80
2022-12-18T02:54:08.904Z,20.80
2022-12-18T02:54:29.935Z,21.80
2022-12-18T02:54:51.455Z,21.40
2022-12-18T02:55:12.553Z,21.00
2022-12-18T02:55:33.704Z,21.20
2022-12-18T02:55:54.742Z,21.80
2022-12-18T02:56:15.835Z,23.10
2022-12-18T02:56:36.863Z,21.10
2022-12-18T02:56:57.923Z,20.90
2022-12-18T02:57:19.145Z,20.50
2022-12-18T02:57:40.215Z,19.40
2022-12-18T02:58:01.394Z,21.10
2022-12-18T02:58:22.412Z,19.80
2022-12-18T02:58:43.475Z,20.30
2022-12-18T02:59:04.557Z,20.90
2022-12-18T02:59:25.604Z,21.70
2022-12-18T02:59:46.670Z,21.90
2022-12-18T03:00:07.725Z,20.70
2022-12-18T03:00:28.778Z,20.00
2022-12-18T03:00:49.904Z,21.00
2022-12-18T03:01:11.082Z,21.60
2022-12-18T03:01:32.355Z,21.90
2022-12-18T03:01:53.637Z,21.50
2022-12-18T03:02:14.963Z,20.50
2022-12-18T03:02:36.251Z,20.20
2022-12-18T03:02:57.529Z,20.30
2022-12-18T03:03:18.708Z,20.10
2022-12-18T03:03:41.855Z,20.10
2022-12-18T03:04:03.118Z,20.40
2022-12-18T03:04:24.183Z,20.50
2022-12-18T03:04:45.243Z,20.00
2022-12-18T03:05:06.299Z,20.20
2022-12-18T03:05:27.433Z,20.40
2022-12-18T03:05:48.464Z,19.10
2022-12-18T03:06:09.517Z,20.60
2022-12-18T03:06:30.571Z,20.50
2022-12-18T03:06:51.682Z,20.50
2022-12-18T03:07:12.739Z,21.70
2022-12-18T03:07:33.795Z,21.30
2022-12-18T03:07:54.912Z,20.40
2022-12-18T03:08:15.960Z,21.20
2022-12-18T03:08:37.021Z,21.10
2022-12-18T03:08:58.097Z,21.10
2022-12-18T03:09:19.149Z,21.30
2022-12-18T03:09:40.225Z,20.40
2022-12-18T03:10:01.286Z,20.80
2022-12-18T03:10:22.355Z,20.80
2022-12-18T03:10:43.412Z,20.90
2022-12-18T03:11:04.499Z,20.80
2022-12-18T03:11:25.565Z,20.40
2022-12-18T03:11:46.653Z,22.20
2022-12-18T03:12:07.695Z,21.60
2022-12-18T03:12:28.749Z,21.20
2022-12-18T03:12:49.815Z,21.10
2022-12-18T03:13:11.126Z,21.40
2022-12-18T03:13:32.137Z,20.70
2022-12-18T03:13:53.210Z,21.20
2022-12-18T03:14:14.321Z,21.30
2022-12-18T03:14:35.361Z,21.10
2022-12-18T03:14:56.418Z,20.80
2022-12-18T03:15:17.983Z,21.60
2022-12-18T03:15:39.196Z,21.70
2022-12-18T03:16:00.253Z,21.50
2022-12-18T03:16:21.349Z,19.90
2022-12-18T03:16:42.544Z,20.10
2022-12-18T03:17:03.660Z,20.50
2022-12-18T03:17:25.944Z,20.70
2022-12-18T03:17:47.012Z,21.30
2022-12-18T03:18:08.092Z,21.00
2022-12-18T03:18:29.321Z,21.10
2022-12-18T03:18:50.394Z,21.10
2022-12-18T03:19:11.444Z,21.30
2022-12-18T03:19:32.707Z,20.50
2022-12-18T03:19:53.775Z,20.60
2022-12-18T03:20:14.874Z,22.80
2022-12-18T03:20:35.931Z,21.80
2022-12-18T03:20:56.999Z,20.20
2022-12-18T03:21:18.100Z,21.00
2022-12-18T03:21:39.143Z,20.80
2022-12-18T03:22:00.582Z,21.80
2022-12-18T03:22:21.644Z,21.30
2022-12-18T03:22:42.721Z,21.40
2022-12-18T03:23:03.773Z,20.70
2022-12-18T03:23:26.453Z,20.20
2022-12-18T03:23:47.710Z,20.90
2022-12-18T03:24:08.807Z,21.30
2022-12-18T03:24:30.832Z,21.20
2022-12-18T03:24:51.893Z,20.30
2022-12-18T03:25:12.951Z,20.80
2022-12-18T03:25:34.021Z,20.60
2022-12-18T03:25:55.131Z,21.10
2022-12-18T03:26:16.162Z,21.10
2022-12-18T03:26:37.220Z,21.20
2022-12-18T03:26:58.815Z,19.90
2022-12-18T03:27:19.855Z,20.40
2022-12-18T03:27:40.925Z,21.00
2022-12-18T03:28:01.989Z,20.70
2022-12-18T03:28:23.179Z,21.90
2022-12-18T03:28:44.199Z,21.40
2022-12-18T03:29:05.410Z,20.80
2022-12-18T03:29:26.531Z,21.00
2022-12-18T03:29:47.563Z,21.00
2022-12-18T03:30:08.618Z,21.50
2022-12-18T03:30:29.734Z,21.30
2022-12-18T03:30:50.804Z,21.10
2022-12-18T03:31:11.923Z,21.50
2022-12-18T03:31:32.976Z,21.00
2022-12-18T03:31:54.022Z,21.00
2022-12-18T03:32:15.082Z,21.00
2022-12-18T03:32:36.162Z,21.80
2022-12-18T03:33:00.255Z,22.30
2022-12-18T03:33:21.607Z,21.40
2022-12-18T03:33:43.064Z,21.30
2022-12-18T03:34:04.118Z,21.20
2022-12-18T03:34:25.328Z,21.10
2022-12-18T03:34:46.461Z,21.90
2022-12-18T03:35:07.507Z,20.90
2022-12-18T03:35:28.551Z,20.00
2022-12-18T03:35:49.623Z,20.50
2022-12-18T03:36:10.711Z,19.80
2022-12-18T03:36:31.746Z,20.60
2022-12-18T03:36:52.814Z,20.70
2022-12-18T03:37:13.874Z,21.30
2022-12-18T03:37:34.940Z,21.30
2022-12-18T03:37:56.004Z,19.90
2022-12-18T03:38:17.063Z,20.40
2022-12-18T03:38:38.138Z,20.70
2022-12-18T03:38:59.218Z,22.00
2022-12-18T03:39:20.261Z,21.50
2022-12-18T03:39:41.405Z,21.80
2022-12-18T03:40:02.438Z,21.20
2022-12-18T03:40:23.499Z,19.90
2022-12-18T03:40:44.542Z,20.20
2022-12-18T03:41:05.628Z,20.60
2022-12-18T03:41:26.690Z,20.60
2022-12-18T03:41:47.944Z,20.70
2022-12-18T03:42:09.001Z,21.00
2022-12-18T03:42:30.061Z,22.10
2022-12-18T03:42:51.125Z,22.00
2022-12-18T03:43:12.184Z,21.60
2022-12-18T03:43:33.369Z,20.40
2022-12-18T03:43:54.433Z,19.80
2022-12-18T03:44:15.527Z,21.00
2022-12-18T03:44:36.572Z,22.10
2022-12-18T03:44:57.809Z,21.40
2022-12-18T03:45:18.840Z,21.30
2022-12-18T03:45:39.943Z,22.10
2022-12-18T03:46:01.068Z,20.40
2022-12-18T03:46:22.168Z,20.60
2022-12-18T03:46:43.510Z,20.90
2022-12-18T03:47:04.578Z,21.40
2022-12-18T03:47:25.688Z,21.50
2022-12-18T03:47:46.728Z,20.80
2022-12-18T03:48:07.802Z,21.90
2022-12-18T03:48:28.849Z,21.50
2022-12-18T03:48:49.931Z,20.50
2022-12-18T03:49:11.049Z,20.70
2022-12-18T03:49:32.072Z,21.40
2022-12-18T03:49:53.129Z,20.30
2022-12-18T03:50:14.283Z,20.60
2022-12-18T03:50:35.307Z,21.40
2022-12-18T03:50:56.363Z,20.90
2022-12-18T03:51:17.427Z,21.20
2022-12-18T03:51:38.491Z,20.80
2022-12-18T03:51:59.566Z,20.20
2022-12-18T03:52:20.622Z,20.10
2022-12-18T03:52:41.683Z,20.60
2022-12-18T03:53:02.735Z,20.60
2022-12-18T03:53:23.806Z,21.50
2022-12-18T03:53:44.848Z,21.20
2022-12-18T03:54:05.905Z,20.20
2022-12-18T03:54:26.969Z,20.70
2022-12-18T03:54:48.038Z,20.40
2022-12-18T03:55:09.095Z,20.90
2022-12-18T03:55:30.202Z,21.00
2022-12-18T03:55:51.250Z,19.50
2022-12-18T03:56:12.326Z,21.30
2022-12-18T03:56:33.436Z,21.60
2022-12-18T03:56:54.498Z,21.50
2022-12-18T03:57:15.557Z,20.90
2022-12-18T03:57:36.607Z,20.20
2022-12-18T03:57:57.670Z,20.20
2022-12-18T03:58:18.788Z,20.60
2022-12-18T03:58:39.911Z,20.40
2022-12-18T03:59:03.127Z,20.00
2022-12-18T03:59:24.169Z,20.70
2022-12-18T03:59:45.252Z,20.80
2022-12-18T04:00:06.328Z,20.90
2022-12-18T04:00:27.365Z,20.30
2022-12-18T04:00:48.466Z,20.30
2022-12-18T04:01:09.602Z,21.20
2022-12-18T04:01:30.748Z,20.50
2022-12-18T04:01:52.014Z,19.50
2022-12-18T04:02:13.308Z,19.80
2022-12-18T04:02:34.554Z,21.60
2022-12-18T04:02:55.675Z,20.10
2022-12-18T04:03:16.802Z,20.10
2022-12-18T04:03:37.968Z,20.40
2022-12-18T04:03:59.050Z,20.90
2022-12-18T04:04:20.131Z,21.50
2022-12-18T04:04:41.174Z,20.60
2022-12-18T04:05:02.246Z,20.50
2022-12-18T04:05:23.289Z,20.10
2022-12-18T04:05:44.503Z,20.10
2022-12-18T04:06:05.562Z,20.10
2022-12-18T04:06:26.646Z,20.60
2022-12-18T04:06:47.689Z,20.10
2022-12-18T04:07:08.757Z,20.10
2022-12-18T04:07:29.830Z,20.20
2022-12-18T04:07:50.894Z,20.10
2022-12-18T04:08:11.937Z,20.50
2022-12-18T04:08:32.990Z,19.10
2022-12-18T04:08:54.046Z,20.50
2022-12-18T04:09:15.135Z,19.70
2022-12-18T04:09:36.269Z,20.00
2022-12-18T04:09:57.299Z,19.70
2022-12-18T04:10:18.355Z,20.10
2022-12-18T04:10:39.427Z,19.00
2022-12-18T04:11:00.649Z,20.00
2022-12-18T04:11:21.718Z,19.80
2022-12-18T04:11:42.770Z,20.40
2022-12-18T04:12:03.831Z,20.60
2022-12-18T04:12:24.917Z,20.30
2022-12-18T04:12:45.965Z,19.60
2022-12-18T04:13:07.016Z,19.70
2022-12-18T04:13:28.073Z,20.50
2022-12-18T04:13:49.257Z,20.60
2022-12-18T04:14:14.411Z,19.80
2022-12-18T04:14:37.251Z,20.30
2022-12-18T04:14:58.369Z,20.70
2022-12-18T04:15:19.408Z,20.90
2022-12-18T04:15:40.572Z,21.30
2022-12-18T04:16:01.906Z,21.10
2022-12-18T04:16:22.936Z,21.10
2022-12-18T04:16:44.008Z,20.00
2022-12-18T04:17:05.060Z,18.80
2022-12-18T04:17:26.126Z,19.40
2022-12-18T04:17:47.190Z,19.90
2022-12-18T04:18:08.280Z,19.50
2022-12-18T04:18:29.329Z,20.20
2022-12-18T04:18:50.411Z,20.60
2022-12-18T04:19:11.494Z,20.50
2022-12-18T04:19:32.614Z,20.10
2022-12-18T04:19:53.685Z,19.50
2022-12-18T04:20:14.714Z,20.10
2022-12-18T04:20:35.784Z,19.40
2022-12-18T04:20:56.857Z,19.30
2022-12-18T04:21:17.932Z,20.50
2022-12-18T04:21:39.055Z,19.80
2022-12-18T04:22:00.121Z,18.50
2022-12-18T04:22:21.153Z,19.50
2022-12-18T04:22:42.207Z,19.60
2022-12-18T04:23:03.272Z,19.50
2022-12-18T04:23:24.385Z,19.00
2022-12-18T04:23:45.424Z,19.80
2022-12-18T04:24:06.484Z,19.10
2022-12-18T04:24:27.535Z,19.30
2022-12-18T04:24:48.589Z,18.80
2022-12-18T04:25:09.667Z,20.20
2022-12-18T04:25:30.724Z,18.80
2022-12-18T04:25:51.787Z,19.40
2022-12-18T04:26:12.847Z,20.10
2022-12-18T04:26:33.944Z,19.90
2022-12-18T04:26:55.001Z,19.70
2022-12-18T04:27:16.049Z,20.40
2022-12-18T04:27:37.195Z,20.30
2022-12-18T04:27:58.221Z,20.20
2022-12-18T04:28:19.288Z,19.20
2022-12-18T04:28:40.448Z,20.40
2022-12-18T04:29:01.624Z,21.10
2022-12-18T04:29:22.643Z,20.20
2022-12-18T04:29:43.688Z,20.10
2022-12-18T04:30:04.788Z,19.40
2022-12-18T04:30:25.846Z,20.70
2022-12-18T04:30:46.927Z,20.20
2022-12-18T04:31:08.337Z,18.80
2022-12-18T04:31:29.463Z,20.00
2022-12-18T04:31:50.668Z,19.80
2022-12-18T04:32:11.724Z,19.20
2022-12-18T04:32:32.784Z,19.10
2022-12-18T04:32:53.880Z,19.00